sensor_id;sensor_type;location;lat;lon;timestamp;P1;durP1;ratioP1;P2;durP2;ratioP2
12048;SDS011;6085;49.452;8.502;2023-08-08T00:02:16;0.82;;;0.80;;
12048;SDS011;6085;49.452;8.502;2023-08-08T00:06:18;1.00;;;1.00;;
12048;SDS011;6085;49.452;8.502;2023-08-08T00:10:20;1.20;;;1.10;;
12048;SDS011;6085;49.452;8.502;2023-08-08T00:14:22;0.70;;;0.68;;
12048;SDS011;6085;49.452;8.502;2023-08-08T00:18:26;0.75;;;0.75;;
12048;SDS011;6085;49.452;8.502;2023-08-08T00:22:27;0.85;;;0.85;;
12048;SDS011;6085;49.452;8.502;2023-08-08T00:26:30;0.85;;;0.85;;
12048;SDS011;6085;49.452;8.502;2023-08-08T00:30:32;1.00;;;1.00;;
12048;SDS011;6085;49.452;8.502;2023-08-08T00:34:35;0.80;;;0.80;;
12048;SDS011;6085;49.452;8.502;2023-08-08T00:38:37;0.95;;;0.95;;
12048;SDS011;6085;49.452;8.502;2023-08-08T00:42:39;0.90;;;0.88;;
12048;SDS011;6085;49.452;8.502;2023-08-08T00:46:41;1.05;;;1.05;;
12048;SDS011;6085;49.452;8.502;2023-08-08T00:50:45;1.40;;;1.30;;
12048;SDS011;6085;49.452;8.502;2023-08-08T00:54:49;1.38;;;1.08;;
12048;SDS011;6085;49.452;8.502;2023-08-08T00:58:51;1.27;;;1.17;;
12048;SDS011;6085;49.452;8.502;2023-08-08T01:02:53;2.25;;;1.45;;
12048;SDS011;6085;49.452;8.502;2023-08-08T01:07:00;1.48;;;1.38;;
12048;SDS011;6085;49.452;8.502;2023-08-08T01:11:08;2.75;;;1.70;;
12048;SDS011;6085;49.452;8.502;2023-08-08T01:15:10;1.45;;;1.35;;
12048;SDS011;6085;49.452;8.502;2023-08-08T01:19:15;2.60;;;1.30;;
12048;SDS011;6085;49.452;8.502;2023-08-08T01:23:28;1.17;;;1.10;;
12048;SDS011;6085;49.452;8.502;2023-08-08T01:27:47;1.25;;;1.15;;
12048;SDS011;6085;49.452;8.502;2023-08-08T01:31:49;2.50;;;1.80;;
12048;SDS011;6085;49.452;8.502;2023-08-08T01:35:52;1.30;;;1.17;;
12048;SDS011;6085;49.452;8.502;2023-08-08T01:39:57;1.20;;;1.10;;
12048;SDS011;6085;49.452;8.502;2023-08-08T01:44:02;1.70;;;1.60;;
12048;SDS011;6085;49.452;8.502;2023-08-08T01:48:09;1.48;;;1.38;;
12048;SDS011;6085;49.452;8.502;2023-08-08T01:52:11;1.45;;;1.35;;
12048;SDS011;6085;49.452;8.502;2023-08-08T01:56:14;1.98;;;1.65;;
12048;SDS011;6085;49.452;8.502;2023-08-08T02:00:17;1.50;;;1.40;;
12048;SDS011;6085;49.452;8.502;2023-08-08T02:04:19;1.60;;;1.50;;
12048;SDS011;6085;49.452;8.502;2023-08-08T02:08:22;1.33;;;1.23;;
12048;SDS011;6085;49.452;8.502;2023-08-08T02:12:23;1.30;;;1.25;;
12048;SDS011;6085;49.452;8.502;2023-08-08T02:16:27;1.35;;;1.25;;
12048;SDS011;6085;49.452;8.502;2023-08-08T02:20:29;1.20;;;1.10;;
12048;SDS011;6085;49.452;8.502;2023-08-08T02:24:31;1.33;;;1.15;;
12048;SDS011;6085;49.452;8.502;2023-08-08T02:28:33;1.33;;;1.23;;
12048;SDS011;6085;49.452;8.502;2023-08-08T02:32:36;1.80;;;1.60;;
12048;SDS011;6085;49.452;8.502;2023-08-08T02:36:38;1.55;;;1.45;;
12048;SDS011;6085;49.452;8.502;2023-08-08T02:40:40;1.42;;;1.33;;
12048;SDS011;6085;49.452;8.502;2023-08-08T02:44:42;1.20;;;1.10;;
12048;SDS011;6085;49.452;8.502;2023-08-08T02:48:45;1.60;;;1.50;;
12048;SDS011;6085;49.452;8.502;2023-08-08T02:52:47;2.38;;;1.30;;
12048;SDS011;6085;49.452;8.502;2023-08-08T02:56:49;4.03;;;1.00;;
12048;SDS011;6085;49.452;8.502;2023-08-08T03:00:51;1.77;;;1.23;;
12048;SDS011;6085;49.452;8.502;2023-08-08T03:04:55;1.02;;;1.02;;
12048;SDS011;6085;49.452;8.502;2023-08-08T03:08:57;1.33;;;1.10;;
12048;SDS011;6085;49.452;8.502;2023-08-08T03:12:59;1.42;;;1.10;;
12048;SDS011;6085;49.452;8.502;2023-08-08T03:17:00;1.00;;;1.00;;
12048;SDS011;6085;49.452;8.502;2023-08-08T03:21:04;2.85;;;2.17;;
12048;SDS011;6085;49.452;8.502;2023-08-08T03:25:06;4.20;;;2.35;;
12048;SDS011;6085;49.452;8.502;2023-08-08T03:29:10;1.55;;;1.20;;
12048;SDS011;6085;49.452;8.502;2023-08-08T03:33:13;2.13;;;1.23;;
12048;SDS011;6085;49.452;8.502;2023-08-08T03:37:16;1.35;;;1.25;;
12048;SDS011;6085;49.452;8.502;2023-08-08T03:41:18;1.50;;;1.40;;
12048;SDS011;6085;49.452;8.502;2023-08-08T03:45:20;2.88;;;1.67;;
12048;SDS011;6085;49.452;8.502;2023-08-08T03:49:21;1.25;;;1.15;;
12048;SDS011;6085;49.452;8.502;2023-08-08T03:53:25;0.90;;;0.90;;
12048;SDS011;6085;49.452;8.502;2023-08-08T03:57:27;1.40;;;1.40;;
12048;SDS011;6085;49.452;8.502;2023-08-08T04:01:29;4.30;;;1.67;;
12048;SDS011;6085;49.452;8.502;2023-08-08T04:05:30;1.40;;;1.30;;
12048;SDS011;6085;49.452;8.502;2023-08-08T04:09:34;1.67;;;1.58;;
12048;SDS011;6085;49.452;8.502;2023-08-08T04:13:35;2.13;;;1.50;;
12048;SDS011;6085;49.452;8.502;2023-08-08T04:17:37;2.17;;;1.98;;
12048;SDS011;6085;49.452;8.502;2023-08-08T04:21:39;1.83;;;1.38;;
12048;SDS011;6085;49.452;8.502;2023-08-08T04:25:43;3.85;;;1.83;;
12048;SDS011;6085;49.452;8.502;2023-08-08T04:29:46;1.50;;;1.40;;
12048;SDS011;6085;49.452;8.502;2023-08-08T04:33:48;2.30;;;1.75;;
12048;SDS011;6085;49.452;8.502;2023-08-08T04:37:50;2.08;;;1.60;;
12048;SDS011;6085;49.452;8.502;2023-08-08T04:41:53;1.77;;;1.65;;
12048;SDS011;6085;49.452;8.502;2023-08-08T04:45:55;3.45;;;1.70;;
12048;SDS011;6085;49.452;8.502;2023-08-08T04:49:57;1.63;;;1.50;;
12048;SDS011;6085;49.452;8.502;2023-08-08T04:53:59;1.20;;;1.20;;
12048;SDS011;6085;49.452;8.502;2023-08-08T04:58:06;1.30;;;1.30;;
12048;SDS011;6085;49.452;8.502;2023-08-08T05:02:08;1.13;;;1.02;;
12048;SDS011;6085;49.452;8.502;2023-08-08T05:06:10;1.30;;;1.20;;
12048;SDS011;6085;49.452;8.502;2023-08-08T05:10:11;1.30;;;1.20;;
12048;SDS011;6085;49.452;8.502;2023-08-08T05:14:15;1.48;;;1.38;;
12048;SDS011;6085;49.452;8.502;2023-08-08T05:18:17;2.50;;;1.33;;
12048;SDS011;6085;49.452;8.502;2023-08-08T05:22:19;1.05;;;1.05;;
12048;SDS011;6085;49.452;8.502;2023-08-08T05:26:21;2.08;;;1.40;;
12048;SDS011;6085;49.452;8.502;2023-08-08T05:30:24;1.42;;;1.33;;
12048;SDS011;6085;49.452;8.502;2023-08-08T05:34:26;1.40;;;1.30;;
12048;SDS011;6085;49.452;8.502;2023-08-08T05:38:28;1.00;;;0.98;;
12048;SDS011;6085;49.452;8.502;2023-08-08T05:42:30;1.00;;;1.00;;
12048;SDS011;6085;49.452;8.502;2023-08-08T05:46:33;1.00;;;1.00;;
12048;SDS011;6085;49.452;8.502;2023-08-08T05:50:35;1.20;;;1.20;;
12048;SDS011;6085;49.452;8.502;2023-08-08T05:54:37;1.10;;;1.00;;
12048;SDS011;6085;49.452;8.502;2023-08-08T05:58:39;1.40;;;1.15;;
12048;SDS011;6085;49.452;8.502;2023-08-08T06:02:42;1.20;;;1.10;;
12048;SDS011;6085;49.452;8.502;2023-08-08T06:06:44;1.35;;;0.98;;
12048;SDS011;6085;49.452;8.502;2023-08-08T06:10:48;1.30;;;0.80;;
12048;SDS011;6085;49.452;8.502;2023-08-08T06:14:51;1.15;;;1.08;;
12048;SDS011;6085;49.452;8.502;2023-08-08T06:18:54;1.10;;;1.10;;
12048;SDS011;6085;49.452;8.502;2023-08-08T06:22:56;1.15;;;1.05;;
12048;SDS011;6085;49.452;8.502;2023-08-08T06:26:58;1.25;;;1.15;;
12048;SDS011;6085;49.452;8.502;2023-08-08T06:31:00;1.27;;;1.20;;
12048;SDS011;6085;49.452;8.502;2023-08-08T06:35:04;0.85;;;0.85;;
12048;SDS011;6085;49.452;8.502;2023-08-08T06:39:07;1.10;;;1.00;;
12048;SDS011;6085;49.452;8.502;2023-08-08T06:43:09;1.25;;;0.95;;
12048;SDS011;6085;49.452;8.502;2023-08-08T06:47:11;1.33;;;0.82;;
12048;SDS011;6085;49.452;8.502;2023-08-08T06:51:14;1.38;;;1.15;;
12048;SDS011;6085;49.452;8.502;2023-08-08T06:55:16;2.70;;;0.90;;
12048;SDS011;6085;49.452;8.502;2023-08-08T06:59:18;1.65;;;1.05;;
12048;SDS011;6085;49.452;8.502;2023-08-08T07:03:20;0.98;;;0.98;;
12048;SDS011;6085;49.452;8.502;2023-08-08T07:07:23;0.75;;;0.75;;
12048;SDS011;6085;49.452;8.502;2023-08-08T07:11:25;1.05;;;0.93;;
12048;SDS011;6085;49.452;8.502;2023-08-08T07:15:28;0.77;;;0.77;;
12048;SDS011;6085;49.452;8.502;2023-08-08T07:19:30;1.10;;;1.00;;
12048;SDS011;6085;49.452;8.502;2023-08-08T07:23:34;0.70;;;0.70;;
12048;SDS011;6085;49.452;8.502;2023-08-08T07:27:35;0.95;;;0.93;;
12048;SDS011;6085;49.452;8.502;2023-08-08T07:31:37;0.82;;;0.70;;
12048;SDS011;6085;49.452;8.502;2023-08-08T07:35:39;0.82;;;0.82;;
12048;SDS011;6085;49.452;8.502;2023-08-08T07:39:43;0.60;;;0.60;;
12048;SDS011;6085;49.452;8.502;2023-08-08T07:43:46;0.80;;;0.80;;
12048;SDS011;6085;49.452;8.502;2023-08-08T07:47:48;1.15;;;0.90;;
12048;SDS011;6085;49.452;8.502;2023-08-08T07:51:50;0.55;;;0.52;;
12048;SDS011;6085;49.452;8.502;2023-08-08T07:55:53;0.80;;;0.80;;
12048;SDS011;6085;49.452;8.502;2023-08-08T07:59:55;0.60;;;0.60;;
12048;SDS011;6085;49.452;8.502;2023-08-08T08:03:57;0.75;;;0.75;;
12048;SDS011;6085;49.452;8.502;2023-08-08T08:07:59;1.25;;;0.65;;
12048;SDS011;6085;49.452;8.502;2023-08-08T08:12:03;0.68;;;0.68;;
12048;SDS011;6085;49.452;8.502;2023-08-08T08:16:06;1.95;;;0.80;;
12048;SDS011;6085;49.452;8.502;2023-08-08T08:20:08;0.85;;;0.63;;
12048;SDS011;6085;49.452;8.502;2023-08-08T08:24:12;0.80;;;0.57;;
12048;SDS011;6085;49.452;8.502;2023-08-08T08:28:15;0.80;;;0.57;;
12048;SDS011;6085;49.452;8.502;2023-08-08T08:32:17;0.75;;;0.75;;
12048;SDS011;6085;49.452;8.502;2023-08-08T08:36:19;0.65;;;0.60;;
12048;SDS011;6085;49.452;8.502;2023-08-08T08:40:22;0.77;;;0.63;;
12048;SDS011;6085;49.452;8.502;2023-08-08T08:44:25;0.60;;;0.60;;
12048;SDS011;6085;49.452;8.502;2023-08-08T08:48:29;0.68;;;0.68;;
12048;SDS011;6085;49.452;8.502;2023-08-08T08:52:32;0.73;;;0.57;;
12048;SDS011;6085;49.452;8.502;2023-08-08T08:56:34;1.17;;;0.80;;
12048;SDS011;6085;49.452;8.502;2023-08-08T09:00:37;0.95;;;0.77;;
12048;SDS011;6085;49.452;8.502;2023-08-08T09:04:40;1.08;;;0.38;;
12048;SDS011;6085;49.452;8.502;2023-08-08T09:08:42;0.80;;;0.43;;
12048;SDS011;6085;49.452;8.502;2023-08-08T09:12:47;0.95;;;0.55;;
12048;SDS011;6085;49.452;8.502;2023-08-08T09:16:50;0.47;;;0.47;;
12048;SDS011;6085;49.452;8.502;2023-08-08T09:20:54;0.75;;;0.73;;
12048;SDS011;6085;49.452;8.502;2023-08-08T09:24:56;0.50;;;0.50;;
12048;SDS011;6085;49.452;8.502;2023-08-08T09:28:58;0.50;;;0.50;;
12048;SDS011;6085;49.452;8.502;2023-08-08T09:33:02;0.60;;;0.60;;
12048;SDS011;6085;49.452;8.502;2023-08-08T09:37:05;1.30;;;0.70;;
12048;SDS011;6085;49.452;8.502;2023-08-08T09:41:07;0.57;;;0.55;;
12048;SDS011;6085;49.452;8.502;2023-08-08T09:45:09;0.63;;;0.63;;
12048;SDS011;6085;49.452;8.502;2023-08-08T09:49:13;0.93;;;0.75;;
12048;SDS011;6085;49.452;8.502;2023-08-08T09:53:16;0.50;;;0.50;;
12048;SDS011;6085;49.452;8.502;2023-08-08T09:57:19;1.63;;;1.02;;
12048;SDS011;6085;49.452;8.502;2023-08-08T10:01:22;1.40;;;0.60;;
12048;SDS011;6085;49.452;8.502;2023-08-08T10:05:28;1.33;;;0.95;;
12048;SDS011;6085;49.452;8.502;2023-08-08T10:09:31;0.93;;;0.50;;
12048;SDS011;6085;49.452;8.502;2023-08-08T10:13:34;0.63;;;0.63;;
12048;SDS011;6085;49.452;8.502;2023-08-08T10:17:37;0.43;;;0.43;;
12048;SDS011;6085;49.452;8.502;2023-08-08T10:21:43;0.85;;;0.82;;
12048;SDS011;6085;49.452;8.502;2023-08-08T10:25:45;1.20;;;0.80;;
12048;SDS011;6085;49.452;8.502;2023-08-08T10:29:48;0.60;;;0.57;;
12048;SDS011;6085;49.452;8.502;2023-08-08T10:34:00;1.67;;;0.80;;
12048;SDS011;6085;49.452;8.502;2023-08-08T10:38:07;0.82;;;0.70;;
12048;SDS011;6085;49.452;8.502;2023-08-08T10:42:10;0.73;;;0.70;;
12048;SDS011;6085;49.452;8.502;2023-08-08T10:46:23;2.85;;;0.80;;
12048;SDS011;6085;49.452;8.502;2023-08-08T10:50:26;0.60;;;0.60;;
12048;SDS011;6085;49.452;8.502;2023-08-08T10:54:29;0.93;;;0.50;;
12048;SDS011;6085;49.452;8.502;2023-08-08T10:58:36;0.80;;;0.80;;
12048;SDS011;6085;49.452;8.502;2023-08-08T11:02:39;1.65;;;0.90;;
12048;SDS011;6085;49.452;8.502;2023-08-08T11:06:42;1.30;;;0.82;;
12048;SDS011;6085;49.452;8.502;2023-08-08T11:10:50;0.68;;;0.55;;
12048;SDS011;6085;49.452;8.502;2023-08-08T11:14:53;1.08;;;0.82;;
12048;SDS011;6085;49.452;8.502;2023-08-08T11:18:55;0.88;;;0.88;;
12048;SDS011;6085;49.452;8.502;2023-08-08T11:22:57;0.50;;;0.45;;
12048;SDS011;6085;49.452;8.502;2023-08-08T11:27:01;0.88;;;0.80;;
12048;SDS011;6085;49.452;8.502;2023-08-08T11:31:04;1.13;;;0.50;;
12048;SDS011;6085;49.452;8.502;2023-08-08T11:35:06;0.68;;;0.63;;
12048;SDS011;6085;49.452;8.502;2023-08-08T11:39:08;1.15;;;1.00;;
12048;SDS011;6085;49.452;8.502;2023-08-08T11:43:13;0.60;;;0.60;;
12048;SDS011;6085;49.452;8.502;2023-08-08T11:47:15;0.85;;;0.82;;
12048;SDS011;6085;49.452;8.502;2023-08-08T11:51:17;0.95;;;0.57;;
12048;SDS011;6085;49.452;8.502;2023-08-08T11:55:19;1.23;;;0.45;;
12048;SDS011;6085;49.452;8.502;2023-08-08T11:59:23;0.73;;;0.60;;
12048;SDS011;6085;49.452;8.502;2023-08-08T12:03:26;0.47;;;0.47;;
12048;SDS011;6085;49.452;8.502;2023-08-08T12:07:28;1.00;;;0.60;;
12048;SDS011;6085;49.452;8.502;2023-08-08T12:11:34;0.60;;;0.60;;
12048;SDS011;6085;49.452;8.502;2023-08-08T12:15:39;0.65;;;0.65;;
12048;SDS011;6085;49.452;8.502;2023-08-08T12:19:44;0.70;;;0.70;;
12048;SDS011;6085;49.452;8.502;2023-08-08T12:23:48;0.70;;;0.45;;
12048;SDS011;6085;49.452;8.502;2023-08-08T12:27:50;0.60;;;0.60;;
12048;SDS011;6085;49.452;8.502;2023-08-08T12:31:54;0.68;;;0.60;;
12048;SDS011;6085;49.452;8.502;2023-08-08T12:35:56;0.57;;;0.57;;
12048;SDS011;6085;49.452;8.502;2023-08-08T12:39:58;0.70;;;0.70;;
12048;SDS011;6085;49.452;8.502;2023-08-08T12:44:00;2.15;;;0.85;;
12048;SDS011;6085;49.452;8.502;2023-08-08T12:48:04;0.50;;;0.50;;
12048;SDS011;6085;49.452;8.502;2023-08-08T12:52:06;1.75;;;0.68;;
12048;SDS011;6085;49.452;8.502;2023-08-08T12:56:09;0.60;;;0.60;;
12048;SDS011;6085;49.452;8.502;2023-08-08T13:00:13;0.40;;;0.40;;
12048;SDS011;6085;49.452;8.502;2023-08-08T13:04:17;0.90;;;0.70;;
12048;SDS011;6085;49.452;8.502;2023-08-08T13:08:19;0.57;;;0.57;;
12048;SDS011;6085;49.452;8.502;2023-08-08T13:12:21;0.52;;;0.50;;
12048;SDS011;6085;49.452;8.502;2023-08-08T13:16:23;0.50;;;0.50;;
12048;SDS011;6085;49.452;8.502;2023-08-08T13:20:26;1.23;;;0.50;;
12048;SDS011;6085;49.452;8.502;2023-08-08T13:24:28;1.08;;;0.40;;
12048;SDS011;6085;49.452;8.502;2023-08-08T13:28:30;0.68;;;0.68;;
12048;SDS011;6085;49.452;8.502;2023-08-08T13:32:32;0.52;;;0.52;;
12048;SDS011;6085;49.452;8.502;2023-08-08T13:36:35;0.60;;;0.50;;
12048;SDS011;6085;49.452;8.502;2023-08-08T13:40:37;3.05;;;0.70;;
12048;SDS011;6085;49.452;8.502;2023-08-08T13:44:39;1.63;;;0.80;;
12048;SDS011;6085;49.452;8.502;2023-08-08T13:48:41;0.60;;;0.60;;
12048;SDS011;6085;49.452;8.502;2023-08-08T13:52:45;0.70;;;0.70;;
12048;SDS011;6085;49.452;8.502;2023-08-08T13:56:46;1.17;;;0.68;;
12048;SDS011;6085;49.452;8.502;2023-08-08T14:00:48;1.13;;;0.60;;
12048;SDS011;6085;49.452;8.502;2023-08-08T14:04:51;1.13;;;0.60;;
12048;SDS011;6085;49.452;8.502;2023-08-08T14:08:54;0.50;;;0.50;;
12048;SDS011;6085;49.452;8.502;2023-08-08T14:12:56;0.82;;;0.82;;
12048;SDS011;6085;49.452;8.502;2023-08-08T14:16:58;0.70;;;0.70;;
12048;SDS011;6085;49.452;8.502;2023-08-08T14:21:00;0.63;;;0.63;;
12048;SDS011;6085;49.452;8.502;2023-08-08T14:25:06;1.23;;;0.50;;
12048;SDS011;6085;49.452;8.502;2023-08-08T14:29:08;0.75;;;0.75;;
12048;SDS011;6085;49.452;8.502;2023-08-08T14:33:12;1.67;;;1.05;;
12048;SDS011;6085;49.452;8.502;2023-08-08T14:37:14;0.70;;;0.70;;
12048;SDS011;6085;49.452;8.502;2023-08-08T14:41:17;1.33;;;0.60;;
12048;SDS011;6085;49.452;8.502;2023-08-08T14:45:19;0.52;;;0.50;;
12048;SDS011;6085;49.452;8.502;2023-08-08T14:49:21;0.70;;;0.70;;
12048;SDS011;6085;49.452;8.502;2023-08-08T14:53:25;2.30;;;0.80;;
12048;SDS011;6085;49.452;8.502;2023-08-08T14:57:28;0.47;;;0.47;;
12048;SDS011;6085;49.452;8.502;2023-08-08T15:01:31;0.98;;;0.60;;
12048;SDS011;6085;49.452;8.502;2023-08-08T15:05:33;1.83;;;1.00;;
12048;SDS011;6085;49.452;8.502;2023-08-08T15:09:35;0.75;;;0.75;;
12048;SDS011;6085;49.452;8.502;2023-08-08T15:13:38;0.73;;;0.70;;
12048;SDS011;6085;49.452;8.502;2023-08-08T15:17:40;1.00;;;0.88;;
12048;SDS011;6085;49.452;8.502;2023-08-08T15:21:43;0.73;;;0.57;;
12048;SDS011;6085;49.452;8.502;2023-08-08T15:25:45;0.63;;;0.63;;
12048;SDS011;6085;49.452;8.502;2023-08-08T15:29:48;1.48;;;0.65;;
12048;SDS011;6085;49.452;8.502;2023-08-08T15:33:51;1.85;;;0.77;;
12048;SDS011;6085;49.452;8.502;2023-08-08T15:37:53;1.38;;;0.90;;
12048;SDS011;6085;49.452;8.502;2023-08-08T15:41:55;1.02;;;0.85;;
12048;SDS011;6085;49.452;8.502;2023-08-08T15:45:59;0.75;;;0.75;;
12048;SDS011;6085;49.452;8.502;2023-08-08T15:50:01;0.60;;;0.60;;
12048;SDS011;6085;49.452;8.502;2023-08-08T15:54:03;0.95;;;0.90;;
12048;SDS011;6085;49.452;8.502;2023-08-08T15:58:06;1.15;;;0.68;;
12048;SDS011;6085;49.452;8.502;2023-08-08T16:02:09;0.57;;;0.57;;
12048;SDS011;6085;49.452;8.502;2023-08-08T16:06:12;1.75;;;0.80;;
12048;SDS011;6085;49.452;8.502;2023-08-08T16:10:13;1.20;;;0.73;;
12048;SDS011;6085;49.452;8.502;2023-08-08T16:14:15;0.70;;;0.70;;
12048;SDS011;6085;49.452;8.502;2023-08-08T16:18:19;0.60;;;0.60;;
12048;SDS011;6085;49.452;8.502;2023-08-08T16:22:21;0.85;;;0.82;;
12048;SDS011;6085;49.452;8.502;2023-08-08T16:26:23;1.00;;;0.90;;
12048;SDS011;6085;49.452;8.502;2023-08-08T16:30:25;0.95;;;0.65;;
12048;SDS011;6085;49.452;8.502;2023-08-08T16:34:28;0.90;;;0.70;;
12048;SDS011;6085;49.452;8.502;2023-08-08T16:38:31;0.70;;;0.70;;
12048;SDS011;6085;49.452;8.502;2023-08-08T16:42:32;1.30;;;1.13;;
12048;SDS011;6085;49.452;8.502;2023-08-08T16:46:34;1.08;;;0.93;;
12048;SDS011;6085;49.452;8.502;2023-08-08T16:50:38;1.02;;;0.93;;
12048;SDS011;6085;49.452;8.502;2023-08-08T16:54:40;1.67;;;0.98;;
12048;SDS011;6085;49.452;8.502;2023-08-08T16:58:41;1.20;;;0.80;;
12048;SDS011;6085;49.452;8.502;2023-08-08T17:02:44;1.25;;;0.80;;
12048;SDS011;6085;49.452;8.502;2023-08-08T17:06:47;3.05;;;0.98;;
12048;SDS011;6085;49.452;8.502;2023-08-08T17:10:49;1.20;;;0.75;;
12048;SDS011;6085;49.452;8.502;2023-08-08T17:14:51;2.10;;;0.77;;
12048;SDS011;6085;49.452;8.502;2023-08-08T17:18:53;1.15;;;0.80;;
12048;SDS011;6085;49.452;8.502;2023-08-08T17:22:56;0.90;;;0.90;;
12048;SDS011;6085;49.452;8.502;2023-08-08T17:26:59;0.95;;;0.88;;
12048;SDS011;6085;49.452;8.502;2023-08-08T17:31:01;1.60;;;0.95;;
12048;SDS011;6085;49.452;8.502;2023-08-08T17:35:03;1.60;;;1.02;;
12048;SDS011;6085;49.452;8.502;2023-08-08T17:39:08;1.15;;;1.00;;
12048;SDS011;6085;49.452;8.502;2023-08-08T17:43:10;1.55;;;1.10;;
12048;SDS011;6085;49.452;8.502;2023-08-08T17:47:12;1.23;;;1.00;;
12048;SDS011;6085;49.452;8.502;2023-08-08T17:51:14;1.77;;;0.93;;
12048;SDS011;6085;49.452;8.502;2023-08-08T17:55:17;1.45;;;1.30;;
12048;SDS011;6085;49.452;8.502;2023-08-08T17:59:19;2.58;;;2.00;;
12048;SDS011;6085;49.452;8.502;2023-08-08T18:03:21;2.30;;;1.60;;
12048;SDS011;6085;49.452;8.502;2023-08-08T18:07:23;2.65;;;1.67;;
12048;SDS011;6085;49.452;8.502;2023-08-08T18:11:27;2.17;;;1.35;;
12048;SDS011;6085;49.452;8.502;2023-08-08T18:15:29;1.92;;;1.20;;
12048;SDS011;6085;49.452;8.502;2023-08-08T18:19:31;1.33;;;0.90;;
12048;SDS011;6085;49.452;8.502;2023-08-08T18:23:33;1.20;;;1.10;;
12048;SDS011;6085;49.452;8.502;2023-08-08T18:27:36;0.95;;;0.65;;
12048;SDS011;6085;49.452;8.502;2023-08-08T18:31:38;1.42;;;1.10;;
12048;SDS011;6085;49.452;8.502;2023-08-08T18:35:40;0.93;;;0.85;;
12048;SDS011;6085;49.452;8.502;2023-08-08T18:39:43;2.28;;;1.33;;
12048;SDS011;6085;49.452;8.502;2023-08-08T18:43:46;1.00;;;0.90;;
12048;SDS011;6085;49.452;8.502;2023-08-08T18:47:48;1.30;;;1.05;;
12048;SDS011;6085;49.452;8.502;2023-08-08T18:51:50;1.52;;;1.00;;
12048;SDS011;6085;49.452;8.502;2023-08-08T18:55:52;1.10;;;1.00;;
12048;SDS011;6085;49.452;8.502;2023-08-08T18:59:55;1.15;;;1.02;;
12048;SDS011;6085;49.452;8.502;2023-08-08T19:03:57;1.10;;;1.05;;
12048;SDS011;6085;49.452;8.502;2023-08-08T19:07:59;2.35;;;1.00;;
12048;SDS011;6085;49.452;8.502;2023-08-08T19:12:01;0.88;;;0.88;;
12048;SDS011;6085;49.452;8.502;2023-08-08T19:16:04;1.75;;;1.08;;
12048;SDS011;6085;49.452;8.502;2023-08-08T19:20:06;0.98;;;0.90;;
12048;SDS011;6085;49.452;8.502;2023-08-08T19:24:10;2.13;;;0.85;;
12048;SDS011;6085;49.452;8.502;2023-08-08T19:28:11;1.13;;;1.13;;
12048;SDS011;6085;49.452;8.502;2023-08-08T19:32:15;1.33;;;0.93;;
12048;SDS011;6085;49.452;8.502;2023-08-08T19:36:17;1.95;;;1.10;;
12048;SDS011;6085;49.452;8.502;2023-08-08T19:40:19;2.33;;;1.13;;
12048;SDS011;6085;49.452;8.502;2023-08-08T19:44:20;1.63;;;1.15;;
12048;SDS011;6085;49.452;8.502;2023-08-08T19:48:24;1.20;;;1.10;;
12048;SDS011;6085;49.452;8.502;2023-08-08T19:52:26;0.82;;;0.82;;
12048;SDS011;6085;49.452;8.502;2023-08-08T19:56:28;1.05;;;0.98;;
12048;SDS011;6085;49.452;8.502;2023-08-08T20:00:30;0.93;;;0.80;;
12048;SDS011;6085;49.452;8.502;2023-08-08T20:04:33;1.23;;;0.90;;
12048;SDS011;6085;49.452;8.502;2023-08-08T20:08:36;1.00;;;0.90;;
12048;SDS011;6085;49.452;8.502;2023-08-08T20:12:38;1.15;;;1.10;;
12048;SDS011;6085;49.452;8.502;2023-08-08T20:16:42;1.30;;;1.20;;
12048;SDS011;6085;49.452;8.502;2023-08-08T20:20:45;1.48;;;1.38;;
12048;SDS011;6085;49.452;8.502;2023-08-08T20:24:47;1.83;;;1.45;;
12048;SDS011;6085;49.452;8.502;2023-08-08T20:28:49;1.95;;;1.40;;
12048;SDS011;6085;49.452;8.502;2023-08-08T20:32:51;1.88;;;1.60;;
12048;SDS011;6085;49.452;8.502;2023-08-08T20:36:55;1.58;;;1.25;;
12048;SDS011;6085;49.452;8.502;2023-08-08T20:40:56;1.52;;;1.45;;
12048;SDS011;6085;49.452;8.502;2023-08-08T20:44:58;4.20;;;2.00;;
12048;SDS011;6085;49.452;8.502;2023-08-08T20:49:00;3.33;;;2.47;;
12048;SDS011;6085;49.452;8.502;2023-08-08T20:53:04;2.50;;;1.77;;
12048;SDS011;6085;49.452;8.502;2023-08-08T20:57:07;3.22;;;1.58;;
12048;SDS011;6085;49.452;8.502;2023-08-08T21:01:09;3.30;;;1.50;;
12048;SDS011;6085;49.452;8.502;2023-08-08T21:05:11;1.23;;;1.20;;
12048;SDS011;6085;49.452;8.502;2023-08-08T21:09:14;1.23;;;1.13;;
12048;SDS011;6085;49.452;8.502;2023-08-08T21:13:16;1.38;;;0.95;;
12048;SDS011;6085;49.452;8.502;2023-08-08T21:17:18;1.77;;;1.25;;
12048;SDS011;6085;49.452;8.502;2023-08-08T21:21:20;1.27;;;1.17;;
12048;SDS011;6085;49.452;8.502;2023-08-08T21:25:23;1.20;;;1.10;;
12048;SDS011;6085;49.452;8.502;2023-08-08T21:29:25;1.30;;;1.20;;
12048;SDS011;6085;49.452;8.502;2023-08-08T21:33:27;1.35;;;1.20;;
12048;SDS011;6085;49.452;8.502;2023-08-08T21:37:29;1.30;;;1.27;;
12048;SDS011;6085;49.452;8.502;2023-08-08T21:41:32;1.10;;;1.10;;
12048;SDS011;6085;49.452;8.502;2023-08-08T21:45:34;1.60;;;1.50;;
12048;SDS011;6085;49.452;8.502;2023-08-08T21:49:38;1.38;;;1.35;;
12048;SDS011;6085;49.452;8.502;2023-08-08T21:53:40;1.95;;;1.50;;
12048;SDS011;6085;49.452;8.502;2023-08-08T21:57:43;1.60;;;1.50;;
12048;SDS011;6085;49.452;8.502;2023-08-08T22:01:45;1.63;;;1.52;;
12048;SDS011;6085;49.452;8.502;2023-08-08T22:05:47;1.70;;;1.60;;
12048;SDS011;6085;49.452;8.502;2023-08-08T22:09:49;3.45;;;1.80;;
12048;SDS011;6085;49.452;8.502;2023-08-08T22:13:52;1.52;;;1.42;;
12048;SDS011;6085;49.452;8.502;2023-08-08T22:17:54;1.58;;;1.48;;
12048;SDS011;6085;49.452;8.502;2023-08-08T22:21:59;2.50;;;1.75;;
12048;SDS011;6085;49.452;8.502;2023-08-08T22:26:01;2.00;;;1.90;;
12048;SDS011;6085;49.452;8.502;2023-08-08T22:30:05;1.60;;;1.50;;
12048;SDS011;6085;49.452;8.502;2023-08-08T22:34:07;2.22;;;1.75;;
12048;SDS011;6085;49.452;8.502;2023-08-08T22:38:09;2.25;;;1.60;;
12048;SDS011;6085;49.452;8.502;2023-08-08T22:42:11;2.00;;;1.73;;
12048;SDS011;6085;49.452;8.502;2023-08-08T22:46:14;1.67;;;1.58;;
12048;SDS011;6085;49.452;8.502;2023-08-08T22:50:16;2.00;;;1.88;;
12048;SDS011;6085;49.452;8.502;2023-08-08T22:54:18;2.15;;;2.05;;
12048;SDS011;6085;49.452;8.502;2023-08-08T22:58:20;3.60;;;2.03;;
12048;SDS011;6085;49.452;8.502;2023-08-08T23:02:24;2.55;;;1.80;;
12048;SDS011;6085;49.452;8.502;2023-08-08T23:06:26;2.97;;;2.05;;
12048;SDS011;6085;49.452;8.502;2023-08-08T23:10:28;2.00;;;1.90;;
12048;SDS011;6085;49.452;8.502;2023-08-08T23:14:30;1.90;;;1.73;;
12048;SDS011;6085;49.452;8.502;2023-08-08T23:18:33;2.65;;;2.10;;
12048;SDS011;6085;49.452;8.502;2023-08-08T23:22:37;1.77;;;1.67;;
12048;SDS011;6085;49.452;8.502;2023-08-08T23:26:39;1.83;;;1.67;;
12048;SDS011;6085;49.452;8.502;2023-08-08T23:30:41;3.83;;;2.00;;
12048;SDS011;6085;49.452;8.502;2023-08-08T23:34:45;3.08;;;2.38;;
12048;SDS011;6085;49.452;8.502;2023-08-08T23:38:46;3.35;;;3.00;;
12048;SDS011;6085;49.452;8.502;2023-08-08T23:42:48;4.32;;;3.13;;
12048;SDS011;6085;49.452;8.502;2023-08-08T23:46:50;3.47;;;2.63;;
12048;SDS011;6085;49.452;8.502;2023-08-08T23:50:54;4.35;;;2.95;;
12048;SDS011;6085;49.452;8.502;2023-08-08T23:54:56;2.72;;;2.40;;
12048;SDS011;6085;49.452;8.502;2023-08-08T23:58:58;4.03;;;2.47;;
